Albany, NY (12204)

6:54 AM EDT on August 05, 2015 (GMT -0400)
APRSWXNET | | Change Station
CLOSE
Current Station
Personal Weather Station
Location: Albany, NY
Elevation: 419 ft
Nearby Weather Stations

Elev 419 ft 42.67 °N, 73.71 °W | Updated 27 minutes ago

Clear
Clear
60 °F
Feels Like 60 °F
N
0
Wind Variable Wind from SE
Gusts 0.0 mph

Today
High -- | Low -- °F
--% Chance of Precip.
Yesterday
High -- | Low -- °F
Precip. -- in
5:50 AM 8:10 PM
Waning Gibbous, 68% visible
Pressure 29.91 in
Visibility 10.0 miles
Clouds Few 4100 ft
Mostly Cloudy 12000 ft
Mostly Cloudy 26000 ft
Dew Point 57 °F
Humidity 90%
Rainfall in
Snow Depth Not available.
UV 0 out of 12
Pollen 7.40 out of 12
Air Quality Not available.
Flu Activity Not available.
METAR KALB 051051Z 00000KT 10SM FEW041 BKN120 BKN260 17/14 A2991 RMK AO2 SLP126 T01720144

More Conditions Fewer Conditions

Pressure 29.91 in
Visibility 10.0 miles
Clouds Few 4100 ft
Mostly Cloudy 12000 ft
Mostly Cloudy 26000 ft
Dew Point 57 °F
Humidity 90%
Rainfall in
Snow Depth Not available.
UV 0 out of 12
Pollen 7.40 out of 12
Air Quality Not available.
Flu Activity Not available.
METAR KALB 051051Z 00000KT 10SM FEW041 BKN120 BKN260 17/14 A2991 RMK AO2 SLP126 T01720144

More Conditions Fewer Conditions

10-Day Weather Forecast

×

Almanac

Astronomy

Aug. 05, 2015 Rise Set
Actual Time
Civil Twilight
Nautical Twilight
Astronomical Twilight
Moon
Length of Visible Light
Length of Day
Tomorrow will be .
, % of the Moon is Illuminated

Today's Extremes

State Highs State Lows

Community

WunderPhotos

Upload Photos

1,844,115 photos uploaded!

WunderBlogs® & News

Nearby

Air Quality

  Air Quality AQ Index Pollutant
Not available.

Snow Depth

Station Depth Elevation

Earthquake Activity

City Distance Mag. Time & Date
Minimum magnitude displayed is 2.5.

Coastal Water Temperatures

Place Temperature

Stations

Nearby Weather Stations

Station Location Temp. Windchill Dew Point Humidity Wind Precip. Elev Updated Type